sensor_id;sensor_type;location;lat;lon;timestamp;P1;durP1;ratioP1;P2;durP2;ratioP2
37203;SDS011;23098;48.054;10.636;2023-10-19T00:01:07;35.90;;;18.85;;
37203;SDS011;23098;48.054;10.636;2023-10-19T00:03:34;35.30;;;19.00;;
37203;SDS011;23098;48.054;10.636;2023-10-19T00:06:00;33.00;;;19.25;;
37203;SDS011;23098;48.054;10.636;2023-10-19T00:08:26;30.65;;;19.17;;
37203;SDS011;23098;48.054;10.636;2023-10-19T00:11:01;37.40;;;19.30;;
37203;SDS011;23098;48.054;10.636;2023-10-19T00:13:29;32.45;;;18.85;;
37203;SDS011;23098;48.054;10.636;2023-10-19T00:15:55;29.27;;;17.63;;
37203;SDS011;23098;48.054;10.636;2023-10-19T00:18:22;32.28;;;18.88;;
37203;SDS011;23098;48.054;10.636;2023-10-19T00:20:52;29.73;;;17.42;;
37203;SDS011;23098;48.054;10.636;2023-10-19T00:23:29;29.30;;;16.73;;
37203;SDS011;23098;48.054;10.636;2023-10-19T00:25:57;29.35;;;17.13;;
37203;SDS011;23098;48.054;10.636;2023-10-19T00:28:23;28.40;;;17.50;;
37203;SDS011;23098;48.054;10.636;2023-10-19T00:30:53;32.05;;;18.10;;
37203;SDS011;23098;48.054;10.636;2023-10-19T00:33:24;28.73;;;16.75;;
37203;SDS011;23098;48.054;10.636;2023-10-19T00:35:53;27.92;;;17.95;;
37203;SDS011;23098;48.054;10.636;2023-10-19T00:38:24;26.55;;;17.25;;
37203;SDS011;23098;48.054;10.636;2023-10-19T00:40:55;26.45;;;16.70;;
37203;SDS011;23098;48.054;10.636;2023-10-19T00:43:26;26.30;;;17.38;;
37203;SDS011;23098;48.054;10.636;2023-10-19T00:45:53;27.73;;;17.00;;
37203;SDS011;23098;48.054;10.636;2023-10-19T00:48:19;25.73;;;15.70;;
37203;SDS011;23098;48.054;10.636;2023-10-19T00:50:48;29.30;;;15.43;;
37203;SDS011;23098;48.054;10.636;2023-10-19T00:53:18;26.35;;;16.23;;
37203;SDS011;23098;48.054;10.636;2023-10-19T00:55:44;24.45;;;15.27;;
37203;SDS011;23098;48.054;10.636;2023-10-19T00:58:10;23.08;;;15.13;;
37203;SDS011;23098;48.054;10.636;2023-10-19T01:00:42;25.60;;;15.38;;
37203;SDS011;23098;48.054;10.636;2023-10-19T01:03:13;23.25;;;15.48;;
37203;SDS011;23098;48.054;10.636;2023-10-19T01:05:42;24.73;;;15.20;;
37203;SDS011;23098;48.054;10.636;2023-10-19T01:08:13;23.60;;;16.02;;
37203;SDS011;23098;48.054;10.636;2023-10-19T01:10:49;26.15;;;15.88;;
37203;SDS011;23098;48.054;10.636;2023-10-19T01:13:17;24.30;;;15.82;;
37203;SDS011;23098;48.054;10.636;2023-10-19T01:15:44;25.40;;;15.68;;
37203;SDS011;23098;48.054;10.636;2023-10-19T01:18:14;26.55;;;17.23;;
37203;SDS011;23098;48.054;10.636;2023-10-19T01:20:41;27.98;;;16.92;;
37203;SDS011;23098;48.054;10.636;2023-10-19T01:23:15;26.88;;;16.88;;
37203;SDS011;23098;48.054;10.636;2023-10-19T01:25:51;27.80;;;16.88;;
37203;SDS011;23098;48.054;10.636;2023-10-19T01:28:23;24.17;;;16.35;;
37203;SDS011;23098;48.054;10.636;2023-10-19T01:31:05;25.80;;;16.42;;
37203;SDS011;23098;48.054;10.636;2023-10-19T01:33:32;30.92;;;16.58;;
37203;SDS011;23098;48.054;10.636;2023-10-19T01:35:59;27.70;;;17.52;;
37203;SDS011;23098;48.054;10.636;2023-10-19T01:38:39;27.25;;;17.30;;
37203;SDS011;23098;48.054;10.636;2023-10-19T01:41:06;30.38;;;17.83;;
37203;SDS011;23098;48.054;10.636;2023-10-19T01:43:38;29.55;;;17.95;;
37203;SDS011;23098;48.054;10.636;2023-10-19T01:46:05;32.63;;;18.27;;
37203;SDS011;23098;48.054;10.636;2023-10-19T01:48:36;28.98;;;17.75;;
37203;SDS011;23098;48.054;10.636;2023-10-19T01:51:06;31.45;;;18.05;;
37203;SDS011;23098;48.054;10.636;2023-10-19T01:53:35;32.20;;;18.23;;
37203;SDS011;23098;48.054;10.636;2023-10-19T01:56:05;30.75;;;17.88;;
37203;SDS011;23098;48.054;10.636;2023-10-19T01:58:34;31.35;;;18.35;;
37203;SDS011;23098;48.054;10.636;2023-10-19T02:01:04;35.50;;;19.20;;
37203;SDS011;23098;48.054;10.636;2023-10-19T02:03:40;33.92;;;17.95;;
37203;SDS011;23098;48.054;10.636;2023-10-19T02:06:09;33.97;;;19.20;;
37203;SDS011;23098;48.054;10.636;2023-10-19T02:11:24;33.13;;;18.73;;
37203;SDS011;23098;48.054;10.636;2023-10-19T02:13:52;33.05;;;18.73;;
37203;SDS011;23098;48.054;10.636;2023-10-19T02:16:26;31.20;;;19.50;;
37203;SDS011;23098;48.054;10.636;2023-10-19T02:18:54;31.42;;;19.13;;
37203;SDS011;23098;48.054;10.636;2023-10-19T02:21:20;37.05;;;18.67;;
37203;SDS011;23098;48.054;10.636;2023-10-19T02:23:52;35.95;;;18.92;;
37203;SDS011;23098;48.054;10.636;2023-10-19T02:26:18;32.95;;;18.65;;
37203;SDS011;23098;48.054;10.636;2023-10-19T02:28:48;36.40;;;18.75;;
37203;SDS011;23098;48.054;10.636;2023-10-19T02:31:17;28.08;;;18.08;;
37203;SDS011;23098;48.054;10.636;2023-10-19T02:33:50;27.90;;;17.52;;
37203;SDS011;23098;48.054;10.636;2023-10-19T02:36:20;32.03;;;17.55;;
37203;SDS011;23098;48.054;10.636;2023-10-19T02:38:46;36.75;;;18.58;;
37203;SDS011;23098;48.054;10.636;2023-10-19T02:41:16;34.40;;;18.53;;
37203;SDS011;23098;48.054;10.636;2023-10-19T02:43:44;28.58;;;16.90;;
37203;SDS011;23098;48.054;10.636;2023-10-19T02:46:16;32.90;;;17.67;;
37203;SDS011;23098;48.054;10.636;2023-10-19T02:48:43;28.30;;;16.75;;
37203;SDS011;23098;48.054;10.636;2023-10-19T02:51:15;24.52;;;16.48;;
37203;SDS011;23098;48.054;10.636;2023-10-19T02:53:40;26.73;;;17.05;;
37203;SDS011;23098;48.054;10.636;2023-10-19T02:56:13;26.63;;;16.73;;
37203;SDS011;23098;48.054;10.636;2023-10-19T02:58:44;24.95;;;16.65;;
37203;SDS011;23098;48.054;10.636;2023-10-19T03:01:18;28.55;;;16.48;;
37203;SDS011;23098;48.054;10.636;2023-10-19T03:03:50;28.50;;;16.50;;
37203;SDS011;23098;48.054;10.636;2023-10-19T03:06:22;24.55;;;15.88;;
37203;SDS011;23098;48.054;10.636;2023-10-19T03:08:48;26.15;;;15.73;;
37203;SDS011;23098;48.054;10.636;2023-10-19T03:11:23;23.33;;;14.60;;
37203;SDS011;23098;48.054;10.636;2023-10-19T03:13:50;23.13;;;15.60;;
37203;SDS011;23098;48.054;10.636;2023-10-19T03:16:17;27.70;;;16.60;;
37203;SDS011;23098;48.054;10.636;2023-10-19T03:18:44;25.63;;;16.77;;
37203;SDS011;23098;48.054;10.636;2023-10-19T03:21:09;25.75;;;16.77;;
37203;SDS011;23098;48.054;10.636;2023-10-19T03:23:36;24.92;;;16.00;;
37203;SDS011;23098;48.054;10.636;2023-10-19T03:26:02;26.98;;;16.27;;
37203;SDS011;23098;48.054;10.636;2023-10-19T03:28:47;24.35;;;16.35;;
37203;SDS011;23098;48.054;10.636;2023-10-19T03:31:13;22.33;;;15.50;;
37203;SDS011;23098;48.054;10.636;2023-10-19T03:33:43;22.80;;;15.43;;
37203;SDS011;23098;48.054;10.636;2023-10-19T03:36:12;25.65;;;16.10;;
37203;SDS011;23098;48.054;10.636;2023-10-19T03:38:38;30.15;;;16.42;;
37203;SDS011;23098;48.054;10.636;2023-10-19T03:41:05;25.60;;;16.25;;
37203;SDS011;23098;48.054;10.636;2023-10-19T03:43:33;23.73;;;15.57;;
37203;SDS011;23098;48.054;10.636;2023-10-19T03:46:01;24.55;;;17.00;;
37203;SDS011;23098;48.054;10.636;2023-10-19T03:48:31;29.05;;;17.50;;
37203;SDS011;23098;48.054;10.636;2023-10-19T03:51:03;30.95;;;16.48;;
37203;SDS011;23098;48.054;10.636;2023-10-19T03:53:29;27.27;;;16.23;;
37203;SDS011;23098;48.054;10.636;2023-10-19T03:55:56;31.55;;;17.08;;
37203;SDS011;23098;48.054;10.636;2023-10-19T03:58:22;26.58;;;16.52;;
37203;SDS011;23098;48.054;10.636;2023-10-19T04:00:48;26.05;;;17.15;;
37203;SDS011;23098;48.054;10.636;2023-10-19T04:03:16;26.35;;;16.45;;
37203;SDS011;23098;48.054;10.636;2023-10-19T04:05:43;23.27;;;16.10;;
37203;SDS011;23098;48.054;10.636;2023-10-19T04:08:11;28.05;;;16.65;;
37203;SDS011;23098;48.054;10.636;2023-10-19T04:10:42;23.70;;;16.20;;
37203;SDS011;23098;48.054;10.636;2023-10-19T04:13:30;23.27;;;15.55;;
37203;SDS011;23098;48.054;10.636;2023-10-19T04:15:56;20.92;;;14.43;;
37203;SDS011;23098;48.054;10.636;2023-10-19T04:18:21;22.50;;;14.38;;
37203;SDS011;23098;48.054;10.636;2023-10-19T04:20:50;22.35;;;14.35;;
37203;SDS011;23098;48.054;10.636;2023-10-19T04:23:19;19.80;;;13.10;;
37203;SDS011;23098;48.054;10.636;2023-10-19T04:25:46;23.92;;;13.82;;
37203;SDS011;23098;48.054;10.636;2023-10-19T04:28:12;21.75;;;13.32;;
37203;SDS011;23098;48.054;10.636;2023-10-19T04:30:40;153.32;;;53.33;;
37203;SDS011;23098;48.054;10.636;2023-10-19T04:33:06;31.92;;;18.02;;
37203;SDS011;23098;48.054;10.636;2023-10-19T04:35:35;19.60;;;13.45;;
37203;SDS011;23098;48.054;10.636;2023-10-19T04:38:03;20.08;;;13.02;;
37203;SDS011;23098;48.054;10.636;2023-10-19T04:40:31;17.77;;;12.38;;
37203;SDS011;23098;48.054;10.636;2023-10-19T04:42:56;18.55;;;13.30;;
37203;SDS011;23098;48.054;10.636;2023-10-19T04:45:22;19.30;;;12.88;;
37203;SDS011;23098;48.054;10.636;2023-10-19T04:47:51;16.77;;;12.07;;
37203;SDS011;23098;48.054;10.636;2023-10-19T04:50:17;16.15;;;12.15;;
37203;SDS011;23098;48.054;10.636;2023-10-19T04:52:43;15.48;;;11.38;;
37203;SDS011;23098;48.054;10.636;2023-10-19T04:55:09;13.70;;;10.50;;
37203;SDS011;23098;48.054;10.636;2023-10-19T04:57:35;13.88;;;9.68;;
37203;SDS011;23098;48.054;10.636;2023-10-19T05:00:00;12.20;;;8.85;;
37203;SDS011;23098;48.054;10.636;2023-10-19T05:02:26;13.60;;;10.20;;
37203;SDS011;23098;48.054;10.636;2023-10-19T05:04:52;12.57;;;10.25;;
37203;SDS011;23098;48.054;10.636;2023-10-19T05:07:17;14.88;;;8.88;;
37203;SDS011;23098;48.054;10.636;2023-10-19T05:09:43;15.15;;;9.48;;
37203;SDS011;23098;48.054;10.636;2023-10-19T05:12:10;12.77;;;9.27;;
37203;SDS011;23098;48.054;10.636;2023-10-19T05:14:36;11.10;;;8.70;;
37203;SDS011;23098;48.054;10.636;2023-10-19T05:17:03;9.07;;;7.75;;
37203;SDS011;23098;48.054;10.636;2023-10-19T05:19:32;11.52;;;7.82;;
37203;SDS011;23098;48.054;10.636;2023-10-19T05:22:02;11.25;;;8.15;;
37203;SDS011;23098;48.054;10.636;2023-10-19T05:24:29;12.85;;;8.43;;
37203;SDS011;23098;48.054;10.636;2023-10-19T05:26:55;12.32;;;7.90;;
37203;SDS011;23098;48.054;10.636;2023-10-19T05:29:20;12.77;;;7.82;;
37203;SDS011;23098;48.054;10.636;2023-10-19T05:31:46;16.45;;;8.05;;
37203;SDS011;23098;48.054;10.636;2023-10-19T05:34:12;10.15;;;7.60;;
37203;SDS011;23098;48.054;10.636;2023-10-19T05:36:38;9.85;;;7.28;;
37203;SDS011;23098;48.054;10.636;2023-10-19T05:39:10;8.48;;;6.88;;
37203;SDS011;23098;48.054;10.636;2023-10-19T05:41:35;9.90;;;7.28;;
37203;SDS011;23098;48.054;10.636;2023-10-19T05:44:01;9.93;;;6.97;;
37203;SDS011;23098;48.054;10.636;2023-10-19T05:46:26;9.32;;;7.50;;
37203;SDS011;23098;48.054;10.636;2023-10-19T05:48:54;9.98;;;7.50;;
37203;SDS011;23098;48.054;10.636;2023-10-19T05:51:21;11.23;;;7.35;;
37203;SDS011;23098;48.054;10.636;2023-10-19T05:53:47;9.90;;;7.68;;
37203;SDS011;23098;48.054;10.636;2023-10-19T05:56:13;9.07;;;7.35;;
37203;SDS011;23098;48.054;10.636;2023-10-19T05:58:41;9.65;;;6.93;;
37203;SDS011;23098;48.054;10.636;2023-10-19T06:01:07;7.90;;;6.43;;
37203;SDS011;23098;48.054;10.636;2023-10-19T06:03:33;9.68;;;6.15;;
37203;SDS011;23098;48.054;10.636;2023-10-19T06:05:58;11.07;;;6.53;;
37203;SDS011;23098;48.054;10.636;2023-10-19T06:08:24;10.10;;;6.60;;
37203;SDS011;23098;48.054;10.636;2023-10-19T06:10:50;9.20;;;6.10;;
37203;SDS011;23098;48.054;10.636;2023-10-19T06:13:17;9.93;;;6.85;;
37203;SDS011;23098;48.054;10.636;2023-10-19T06:15:42;10.45;;;6.90;;
37203;SDS011;23098;48.054;10.636;2023-10-19T06:18:08;11.10;;;7.57;;
37203;SDS011;23098;48.054;10.636;2023-10-19T06:20:36;10.20;;;8.07;;
37203;SDS011;23098;48.054;10.636;2023-10-19T06:23:02;11.68;;;8.63;;
37203;SDS011;23098;48.054;10.636;2023-10-19T06:25:31;10.70;;;7.57;;
37203;SDS011;23098;48.054;10.636;2023-10-19T06:27:57;11.00;;;8.38;;
37203;SDS011;23098;48.054;10.636;2023-10-19T06:30:24;10.88;;;7.95;;
37203;SDS011;23098;48.054;10.636;2023-10-19T06:32:52;10.55;;;7.90;;
37203;SDS011;23098;48.054;10.636;2023-10-19T06:35:19;9.75;;;7.13;;
37203;SDS011;23098;48.054;10.636;2023-10-19T06:37:45;9.68;;;6.75;;
37203;SDS011;23098;48.054;10.636;2023-10-19T06:40:12;8.43;;;5.70;;
37203;SDS011;23098;48.054;10.636;2023-10-19T06:42:45;8.45;;;6.22;;
37203;SDS011;23098;48.054;10.636;2023-10-19T06:45:12;10.30;;;5.20;;
37203;SDS011;23098;48.054;10.636;2023-10-19T06:47:46;6.30;;;4.90;;
37203;SDS011;23098;48.054;10.636;2023-10-19T06:50:13;6.97;;;4.82;;
37203;SDS011;23098;48.054;10.636;2023-10-19T06:52:44;9.40;;;5.67;;
37203;SDS011;23098;48.054;10.636;2023-10-19T06:55:11;11.52;;;6.63;;
37203;SDS011;23098;48.054;10.636;2023-10-19T06:57:45;16.35;;;7.55;;
37203;SDS011;23098;48.054;10.636;2023-10-19T07:02:43;9.90;;;7.68;;
37203;SDS011;23098;48.054;10.636;2023-10-19T07:05:12;9.07;;;6.75;;
37203;SDS011;23098;48.054;10.636;2023-10-19T07:07:42;18.48;;;9.07;;
37203;SDS011;23098;48.054;10.636;2023-10-19T07:10:11;17.67;;;10.40;;
37203;SDS011;23098;48.054;10.636;2023-10-19T07:12:38;15.68;;;6.72;;
37203;SDS011;23098;48.054;10.636;2023-10-19T07:15:09;19.45;;;8.35;;
37203;SDS011;23098;48.054;10.636;2023-10-19T07:17:45;5.93;;;4.05;;
37203;SDS011;23098;48.054;10.636;2023-10-19T07:20:12;5.45;;;4.30;;
37203;SDS011;23098;48.054;10.636;2023-10-19T07:23:00;9.27;;;4.35;;
37203;SDS011;23098;48.054;10.636;2023-10-19T07:25:35;20.15;;;13.27;;
37203;SDS011;23098;48.054;10.636;2023-10-19T07:28:09;5.90;;;4.75;;
37203;SDS011;23098;48.054;10.636;2023-10-19T07:30:35;16.95;;;12.18;;
37203;SDS011;23098;48.054;10.636;2023-10-19T07:33:02;6.95;;;5.28;;
37203;SDS011;23098;48.054;10.636;2023-10-19T07:35:29;7.93;;;3.63;;
37203;SDS011;23098;48.054;10.636;2023-10-19T07:38:02;9.55;;;6.85;;
37203;SDS011;23098;48.054;10.636;2023-10-19T07:40:29;6.30;;;4.38;;
37203;SDS011;23098;48.054;10.636;2023-10-19T07:42:55;8.68;;;5.10;;
37203;SDS011;23098;48.054;10.636;2023-10-19T07:45:20;14.57;;;8.73;;
37203;SDS011;23098;48.054;10.636;2023-10-19T07:47:46;10.15;;;5.55;;
37203;SDS011;23098;48.054;10.636;2023-10-19T07:50:12;5.95;;;4.13;;
37203;SDS011;23098;48.054;10.636;2023-10-19T07:52:43;7.95;;;5.68;;
37203;SDS011;23098;48.054;10.636;2023-10-19T07:55:09;8.60;;;4.60;;
37203;SDS011;23098;48.054;10.636;2023-10-19T07:57:36;12.95;;;7.40;;
37203;SDS011;23098;48.054;10.636;2023-10-19T08:00:02;13.98;;;7.18;;
37203;SDS011;23098;48.054;10.636;2023-10-19T08:02:30;13.65;;;7.30;;
37203;SDS011;23098;48.054;10.636;2023-10-19T08:04:55;16.08;;;9.00;;
37203;SDS011;23098;48.054;10.636;2023-10-19T08:07:21;17.35;;;9.00;;
37203;SDS011;23098;48.054;10.636;2023-10-19T08:09:47;41.47;;;18.20;;
37203;SDS011;23098;48.054;10.636;2023-10-19T08:12:14;28.25;;;11.88;;
37203;SDS011;23098;48.054;10.636;2023-10-19T08:14:39;11.20;;;6.07;;
37203;SDS011;23098;48.054;10.636;2023-10-19T08:17:07;27.92;;;11.23;;
37203;SDS011;23098;48.054;10.636;2023-10-19T08:19:34;20.42;;;9.15;;
37203;SDS011;23098;48.054;10.636;2023-10-19T08:21:59;25.58;;;10.93;;
37203;SDS011;23098;48.054;10.636;2023-10-19T08:24:30;85.20;;;25.08;;
37203;SDS011;23098;48.054;10.636;2023-10-19T08:27:00;88.93;;;25.55;;
37203;SDS011;23098;48.054;10.636;2023-10-19T08:29:30;45.05;;;14.43;;
37203;SDS011;23098;48.054;10.636;2023-10-19T08:31:57;6.43;;;4.18;;
37203;SDS011;23098;48.054;10.636;2023-10-19T08:34:24;13.48;;;4.10;;
37203;SDS011;23098;48.054;10.636;2023-10-19T08:36:50;15.77;;;6.50;;
37203;SDS011;23098;48.054;10.636;2023-10-19T08:39:16;50.30;;;18.35;;
37203;SDS011;23098;48.054;10.636;2023-10-19T08:41:43;50.80;;;19.58;;
37203;SDS011;23098;48.054;10.636;2023-10-19T08:44:08;43.70;;;19.25;;
37203;SDS011;23098;48.054;10.636;2023-10-19T08:46:40;33.28;;;11.68;;
37203;SDS011;23098;48.054;10.636;2023-10-19T08:49:11;20.42;;;9.85;;
37203;SDS011;23098;48.054;10.636;2023-10-19T08:51:37;34.00;;;13.55;;
37203;SDS011;23098;48.054;10.636;2023-10-19T08:54:04;83.50;;;35.08;;
37203;SDS011;23098;48.054;10.636;2023-10-19T08:56:31;83.57;;;28.00;;
37203;SDS011;23098;48.054;10.636;2023-10-19T08:58:58;61.30;;;20.83;;
37203;SDS011;23098;48.054;10.636;2023-10-19T09:01:26;57.42;;;20.55;;
37203;SDS011;23098;48.054;10.636;2023-10-19T09:03:52;60.70;;;21.70;;
37203;SDS011;23098;48.054;10.636;2023-10-19T09:06:20;30.45;;;11.23;;
37203;SDS011;23098;48.054;10.636;2023-10-19T09:08:46;72.88;;;25.30;;
37203;SDS011;23098;48.054;10.636;2023-10-19T09:11:13;30.92;;;11.43;;
37203;SDS011;23098;48.054;10.636;2023-10-19T09:13:45;26.45;;;9.95;;
37203;SDS011;23098;48.054;10.636;2023-10-19T09:16:21;8.05;;;4.57;;
37203;SDS011;23098;48.054;10.636;2023-10-19T09:18:49;6.57;;;4.47;;
37203;SDS011;23098;48.054;10.636;2023-10-19T09:21:16;6.75;;;4.00;;
37203;SDS011;23098;48.054;10.636;2023-10-19T09:23:49;7.28;;;3.92;;
37203;SDS011;23098;48.054;10.636;2023-10-19T09:26:16;8.27;;;4.20;;
37203;SDS011;23098;48.054;10.636;2023-10-19T09:28:43;6.65;;;4.30;;
37203;SDS011;23098;48.054;10.636;2023-10-19T09:31:12;5.75;;;4.28;;
37203;SDS011;23098;48.054;10.636;2023-10-19T09:33:40;7.07;;;4.38;;
37203;SDS011;23098;48.054;10.636;2023-10-19T09:36:06;7.90;;;4.00;;
37203;SDS011;23098;48.054;10.636;2023-10-19T09:38:46;7.10;;;4.10;;
37203;SDS011;23098;48.054;10.636;2023-10-19T09:41:19;7.35;;;4.35;;
37203;SDS011;23098;48.054;10.636;2023-10-19T09:43:47;6.20;;;4.03;;
37203;SDS011;23098;48.054;10.636;2023-10-19T09:46:47;7.93;;;4.65;;
37203;SDS011;23098;48.054;10.636;2023-10-19T09:49:06;10.18;;;5.35;;
37203;SDS011;23098;48.054;10.636;2023-10-19T09:51:36;7.97;;;5.97;;
37203;SDS011;23098;48.054;10.636;2023-10-19T09:54:20;5.35;;;4.07;;
37203;SDS011;23098;48.054;10.636;2023-10-19T09:57:25;8.38;;;5.10;;
37203;SDS011;23098;48.054;10.636;2023-10-19T10:00:00;4.93;;;4.00;;
37203;SDS011;23098;48.054;10.636;2023-10-19T10:02:33;8.55;;;3.63;;
37203;SDS011;23098;48.054;10.636;2023-10-19T10:04:59;7.95;;;5.07;;
37203;SDS011;23098;48.054;10.636;2023-10-19T10:07:24;5.80;;;4.40;;
37203;SDS011;23098;48.054;10.636;2023-10-19T10:09:50;7.35;;;4.10;;
37203;SDS011;23098;48.054;10.636;2023-10-19T10:12:20;7.72;;;4.30;;
37203;SDS011;23098;48.054;10.636;2023-10-19T10:15:03;7.85;;;4.20;;
37203;SDS011;23098;48.054;10.636;2023-10-19T10:17:33;6.78;;;4.78;;
37203;SDS011;23098;48.054;10.636;2023-10-19T10:22:39;12.10;;;5.75;;
37203;SDS011;23098;48.054;10.636;2023-10-19T10:25:06;6.82;;;4.45;;
37203;SDS011;23098;48.054;10.636;2023-10-19T10:27:32;7.22;;;3.85;;
37203;SDS011;23098;48.054;10.636;2023-10-19T10:30:01;27.95;;;14.93;;
37203;SDS011;23098;48.054;10.636;2023-10-19T10:32:45;12.15;;;6.82;;
37203;SDS011;23098;48.054;10.636;2023-10-19T10:38:07;6.18;;;3.10;;
37203;SDS011;23098;48.054;10.636;2023-10-19T10:40:47;5.75;;;3.20;;
37203;SDS011;23098;48.054;10.636;2023-10-19T10:43:14;10.32;;;3.70;;
37203;SDS011;23098;48.054;10.636;2023-10-19T10:45:41;8.93;;;3.58;;
37203;SDS011;23098;48.054;10.636;2023-10-19T10:48:13;4.75;;;2.65;;
37203;SDS011;23098;48.054;10.636;2023-10-19T10:50:40;4.63;;;2.60;;
37203;SDS011;23098;48.054;10.636;2023-10-19T10:53:10;6.82;;;3.38;;
37203;SDS011;23098;48.054;10.636;2023-10-19T10:55:38;4.90;;;3.50;;
37203;SDS011;23098;48.054;10.636;2023-10-19T10:58:04;4.75;;;2.58;;
37203;SDS011;23098;48.054;10.636;2023-10-19T11:00:30;6.40;;;4.40;;
37203;SDS011;23098;48.054;10.636;2023-10-19T11:03:00;6.15;;;2.83;;
37203;SDS011;23098;48.054;10.636;2023-10-19T11:05:28;5.10;;;3.00;;
37203;SDS011;23098;48.054;10.636;2023-10-19T11:08:07;4.55;;;3.22;;
37203;SDS011;23098;48.054;10.636;2023-10-19T11:10:41;5.88;;;2.90;;
37203;SDS011;23098;48.054;10.636;2023-10-19T11:13:10;3.65;;;2.40;;
37203;SDS011;23098;48.054;10.636;2023-10-19T11:15:37;6.85;;;3.35;;
37203;SDS011;23098;48.054;10.636;2023-10-19T11:18:06;4.35;;;2.83;;
37203;SDS011;23098;48.054;10.636;2023-10-19T11:20:32;5.95;;;2.80;;
37203;SDS011;23098;48.054;10.636;2023-10-19T11:22:58;5.07;;;2.60;;
37203;SDS011;23098;48.054;10.636;2023-10-19T11:25:28;6.50;;;4.38;;
37203;SDS011;23098;48.054;10.636;2023-10-19T11:32:51;4.53;;;2.45;;
37203;SDS011;23098;48.054;10.636;2023-10-19T11:35:25;5.00;;;2.53;;
37203;SDS011;23098;48.054;10.636;2023-10-19T11:37:53;4.90;;;2.00;;
37203;SDS011;23098;48.054;10.636;2023-10-19T11:40:21;5.65;;;2.38;;
37203;SDS011;23098;48.054;10.636;2023-10-19T11:42:48;7.00;;;2.60;;
37203;SDS011;23098;48.054;10.636;2023-10-19T11:45:18;4.25;;;1.85;;
37203;SDS011;23098;48.054;10.636;2023-10-19T11:47:44;4.50;;;2.25;;
37203;SDS011;23098;48.054;10.636;2023-10-19T11:50:10;4.18;;;1.90;;
37203;SDS011;23098;48.054;10.636;2023-10-19T11:52:39;3.00;;;1.77;;
37203;SDS011;23098;48.054;10.636;2023-10-19T11:55:05;2.55;;;2.00;;
37203;SDS011;23098;48.054;10.636;2023-10-19T11:57:33;2.58;;;1.52;;
37203;SDS011;23098;48.054;10.636;2023-10-19T11:59:59;1.95;;;1.55;;
37203;SDS011;23098;48.054;10.636;2023-10-19T12:02:25;3.08;;;1.67;;
37203;SDS011;23098;48.054;10.636;2023-10-19T12:04:51;3.22;;;1.50;;
37203;SDS011;23098;48.054;10.636;2023-10-19T12:07:17;5.80;;;1.90;;
37203;SDS011;23098;48.054;10.636;2023-10-19T12:09:43;3.83;;;2.13;;
37203;SDS011;23098;48.054;10.636;2023-10-19T12:12:10;4.35;;;3.10;;
37203;SDS011;23098;48.054;10.636;2023-10-19T12:14:38;4.65;;;2.30;;
37203;SDS011;23098;48.054;10.636;2023-10-19T12:17:04;3.33;;;1.98;;
37203;SDS011;23098;48.054;10.636;2023-10-19T12:19:32;4.47;;;2.55;;
37203;SDS011;23098;48.054;10.636;2023-10-19T12:21:59;4.55;;;1.90;;
37203;SDS011;23098;48.054;10.636;2023-10-19T12:24:25;2.72;;;1.80;;
37203;SDS011;23098;48.054;10.636;2023-10-19T12:26:54;2.40;;;1.80;;
37203;SDS011;23098;48.054;10.636;2023-10-19T12:29:19;3.28;;;2.05;;
37203;SDS011;23098;48.054;10.636;2023-10-19T12:31:46;2.88;;;1.60;;
37203;SDS011;23098;48.054;10.636;2023-10-19T12:34:12;3.65;;;1.80;;
37203;SDS011;23098;48.054;10.636;2023-10-19T12:36:38;3.25;;;2.10;;
37203;SDS011;23098;48.054;10.636;2023-10-19T12:39:04;6.78;;;2.40;;
37203;SDS011;23098;48.054;10.636;2023-10-19T12:41:33;7.00;;;2.17;;
37203;SDS011;23098;48.054;10.636;2023-10-19T12:43:59;5.32;;;2.47;;
37203;SDS011;23098;48.054;10.636;2023-10-19T12:46:32;4.75;;;2.05;;
37203;SDS011;23098;48.054;10.636;2023-10-19T12:49:01;3.83;;;1.92;;
37203;SDS011;23098;48.054;10.636;2023-10-19T12:51:39;3.65;;;1.85;;
37203;SDS011;23098;48.054;10.636;2023-10-19T12:54:07;3.03;;;1.88;;
37203;SDS011;23098;48.054;10.636;2023-10-19T12:56:35;3.75;;;1.98;;
37203;SDS011;23098;48.054;10.636;2023-10-19T12:59:00;5.47;;;2.00;;
37203;SDS011;23098;48.054;10.636;2023-10-19T13:01:26;2.88;;;1.58;;
37203;SDS011;23098;48.054;10.636;2023-10-19T13:03:53;1.92;;;1.52;;
37203;SDS011;23098;48.054;10.636;2023-10-19T13:06:18;3.22;;;1.60;;
37203;SDS011;23098;48.054;10.636;2023-10-19T13:08:44;4.13;;;1.70;;
37203;SDS011;23098;48.054;10.636;2023-10-19T13:11:10;1.98;;;1.67;;
37203;SDS011;23098;48.054;10.636;2023-10-19T13:13:39;4.60;;;2.17;;
37203;SDS011;23098;48.054;10.636;2023-10-19T13:16:04;2.83;;;1.90;;
37203;SDS011;23098;48.054;10.636;2023-10-19T13:18:36;2.42;;;1.73;;
37203;SDS011;23098;48.054;10.636;2023-10-19T13:21:05;3.30;;;1.90;;
37203;SDS011;23098;48.054;10.636;2023-10-19T13:23:34;4.38;;;1.98;;
37203;SDS011;23098;48.054;10.636;2023-10-19T13:26:00;2.72;;;2.20;;
37203;SDS011;23098;48.054;10.636;2023-10-19T13:28:33;3.30;;;2.25;;
37203;SDS011;23098;48.054;10.636;2023-10-19T13:31:03;6.07;;;2.35;;
37203;SDS011;23098;48.054;10.636;2023-10-19T13:33:29;5.75;;;3.88;;
37203;SDS011;23098;48.054;10.636;2023-10-19T13:35:55;11.52;;;6.60;;
37203;SDS011;23098;48.054;10.636;2023-10-19T13:38:20;11.15;;;6.97;;
37203;SDS011;23098;48.054;10.636;2023-10-19T13:40:46;4.28;;;2.58;;
37203;SDS011;23098;48.054;10.636;2023-10-19T13:43:13;5.50;;;2.50;;
37203;SDS011;23098;48.054;10.636;2023-10-19T13:45:39;3.08;;;2.33;;
37203;SDS011;23098;48.054;10.636;2023-10-19T13:48:06;4.93;;;2.88;;
37203;SDS011;23098;48.054;10.636;2023-10-19T13:50:34;3.90;;;2.78;;
37203;SDS011;23098;48.054;10.636;2023-10-19T13:53:01;8.18;;;3.30;;
37203;SDS011;23098;48.054;10.636;2023-10-19T13:55:29;7.10;;;3.10;;
37203;SDS011;23098;48.054;10.636;2023-10-19T13:57:56;4.63;;;2.80;;
37203;SDS011;23098;48.054;10.636;2023-10-19T14:00:22;5.32;;;2.80;;
37203;SDS011;23098;48.054;10.636;2023-10-19T14:02:50;7.63;;;3.00;;
37203;SDS011;23098;48.054;10.636;2023-10-19T14:05:16;6.90;;;4.18;;
37203;SDS011;23098;48.054;10.636;2023-10-19T14:07:43;7.32;;;3.55;;
37203;SDS011;23098;48.054;10.636;2023-10-19T14:10:09;6.30;;;3.40;;
37203;SDS011;23098;48.054;10.636;2023-10-19T14:12:39;8.10;;;3.35;;
37203;SDS011;23098;48.054;10.636;2023-10-19T14:15:12;4.43;;;3.03;;
37203;SDS011;23098;48.054;10.636;2023-10-19T14:17:43;6.32;;;2.92;;
37203;SDS011;23098;48.054;10.636;2023-10-19T14:20:11;4.40;;;2.83;;
37203;SDS011;23098;48.054;10.636;2023-10-19T14:25:11;3.50;;;2.63;;
37203;SDS011;23098;48.054;10.636;2023-10-19T14:27:45;5.35;;;2.90;;
37203;SDS011;23098;48.054;10.636;2023-10-19T14:30:13;4.03;;;2.97;;
37203;SDS011;23098;48.054;10.636;2023-10-19T14:32:40;6.47;;;3.65;;
37203;SDS011;23098;48.054;10.636;2023-10-19T14:35:10;6.53;;;3.58;;
37203;SDS011;23098;48.054;10.636;2023-10-19T14:37:40;7.03;;;5.68;;
37203;SDS011;23098;48.054;10.636;2023-10-19T14:40:08;7.47;;;5.40;;
37203;SDS011;23098;48.054;10.636;2023-10-19T14:42:38;6.35;;;4.18;;
37203;SDS011;23098;48.054;10.636;2023-10-19T14:45:07;8.73;;;4.20;;
37203;SDS011;23098;48.054;10.636;2023-10-19T14:47:37;5.95;;;4.30;;